East Jordan, Michigan
Current Conditions -  °F | °C
As of 4:35 PM on Thursday 18 Dec 2014 (Local Time) from KCVX Reporting Station
Clear Clear  
Wind Chill: 16°   Ceiling: Unl
Heat Index: 25°   Visibility: 10mi
Dew Point: 15°   Wind: 8mph
Humidity: 66%   Direction: 20°NNE
Pressure: 30.25"   Gusts: NA
Location:  45.16°N, 85.12°W
Report Text: KCVX 182135Z AUTO 02007KT 10SM CLR M04/M10 A3025 RMK AO2 T10411097
Loading
Personal Weather Stations






























Interactive Weather Map New forecast layout! Learn more

10-Day Weather Forecast

Advertisements
Track Severe Weather on mobile